Beaufort, North Carolina
Current Conditions -  °F | °C
As of 2:58 AM on Friday 24 Oct 2014 (Local Time) from KMRH Reporting Station
Clear Clear  
Wind Chill: 54°   Ceiling: Unl
Heat Index: 54°   Visibility: 10mi
Dew Point: 49°   Wind: 8mph
Humidity: 83%   Direction: 330°NNW
Pressure: 29.96"   Gusts: NA
Location:  34.72°N, 76.66°W
Report Text: KMRH 240658Z AUTO 33007KT 10SM CLR 12/09 A2996 RMK AO2 SLP146 T01220094 TSNO
Loading
Personal Weather Stations






























Interactive Weather Map
Tropical Storm Tracking
New forecast layout! Learn more

10-Day Weather Forecast

Advertisements
Track Severe Weather on mobile